Time,TemperatureF,DewpointF,PressureIn,WindDirection,WindDirectionDegrees,WindSpeedMPH,WindSpeedGustMPH,Humidity,HourlyPrecipIn,Conditions,Clouds,dailyrainin,SoftwareType,DateUTC
2013-08-14 00:12:00,70.0,65.0,29.73,NNW,348,2.0,4.0,84,0.00,,,0.25,,2013-08-14 04:12:00,
2013-08-14 00:23:00,70.0,65.0,29.74,North,0,2.0,5.0,84,0.00,,,0.25,,2013-08-14 04:23:00,
2013-08-14 00:52:00,70.0,65.0,29.73,NNW,347,4.0,6.0,83,0.00,,,0.25,,2013-08-14 04:52:00,
2013-08-14 01:02:00,70.0,65.0,29.73,NNW,347,4.0,6.0,83,0.00,,,0.25,,2013-08-14 05:02:00,
2013-08-14 01:22:00,69.0,61.0,29.73,NNW,329,9.0,10.0,76,0.00,,,0.25,,2013-08-14 05:22:00,
2013-08-14 01:32:00,69.0,61.0,29.73,NNW,329,9.0,10.0,76,0.00,,,0.25,,2013-08-14 05:32:00,
2013-08-14 01:52:00,69.0,60.0,29.73,North,353,4.0,10.0,74,0.00,,,0.25,,2013-08-14 05:52:00,
2013-08-14 02:21:00,68.0,57.0,29.73,NW,319,10.0,15.0,69,0.00,,,0.25,,2013-08-14 06:21:00,
2013-08-14 02:52:00,68.0,58.0,29.73,NNW,334,3.0,11.0,71,0.00,,,0.25,,2013-08-14 06:52:00,
2013-08-14 03:11:00,68.0,59.0,29.74,NNW,330,3.0,10.0,73,0.00,,,0.25,,2013-08-14 07:11:00,
2013-08-14 03:21:00,68.0,59.0,29.74,NNW,330,3.0,10.0,73,0.00,,,0.25,,2013-08-14 07:21:00,
2013-08-14 03:52:00,66.0,55.0,29.74,NW,321,7.0,10.0,68,0.00,,,0.25,,2013-08-14 07:52:00,
2013-08-14 04:21:00,65.0,53.0,29.75,NNW,332,3.0,12.0,66,0.00,,,0.25,,2013-08-14 08:21:00,
2013-08-14 04:52:00,64.0,52.0,29.76,NW,325,4.0,9.0,66,0.00,,,0.25,,2013-08-14 08:52:00,
2013-08-14 05:02:00,64.0,52.0,29.76,NW,325,4.0,9.0,66,0.00,,,0.25,,2013-08-14 09:02:00,
2013-08-14 05:11:00,64.0,52.0,29.76,NW,325,4.0,9.0,66,0.00,,,0.25,,2013-08-14 09:11:00,
2013-08-14 05:21:00,64.0,52.0,29.76,NW,325,4.0,9.0,66,0.00,,,0.25,,2013-08-14 09:21:00,
2013-08-14 06:12:00,61.0,47.0,29.78,NW,306,5.0,9.0,60,0.00,,,0.25,,2013-08-14 10:12:00,
2013-08-14 06:23:00,60.0,46.0,29.79,North,349,3.0,5.0,60,0.00,,,0.25,,2013-08-14 10:23:00,
2013-08-14 06:52:00,60.0,47.0,29.80,NNW,347,0.0,2.0,61,0.00,,,0.25,,2013-08-14 10:52:00,
2013-08-14 07:11:00,60.0,47.0,29.81,NNW,343,3.0,3.0,62,0.00,,,0.25,,2013-08-14 11:11:00,
2013-08-14 07:21:00,60.0,47.0,29.81,NNW,343,3.0,3.0,62,0.00,,,0.25,,2013-08-14 11:21:00,
2013-08-14 07:52:00,61.0,47.0,29.82,NW,325,3.0,9.0,60,0.00,,,0.25,,2013-08-14 11:52:00,
2013-08-14 08:21:00,62.0,47.0,29.83,WNW,302,10.0,12.0,57,0.00,,,0.23,,2013-08-14 12:21:00,
2013-08-14 08:52:00,63.0,47.0,29.83,NNW,337,7.0,11.0,55,0.00,,,0.19,,2013-08-14 12:52:00,
2013-08-14 09:22:00,64.0,47.0,29.83,NW,313,8.0,17.0,53,0.00,,,0.14,,2013-08-14 13:22:00,
2013-08-14 09:52:00,64.0,46.0,29.83,NW,306,5.0,14.0,52,0.00,,,0.11,,2013-08-14 13:52:00,
2013-08-14 10:22:00,68.0,45.0,29.83,North,0,10.0,13.0,44,0.00,,,0.10,,2013-08-14 14:22:00,
2013-08-14 10:52:00,69.0,47.0,29.84,NW,325,8.0,15.0,45,0.00,,,0.09,,2013-08-14 14:52:00,
2013-08-14 11:02:00,69.0,47.0,29.84,NW,325,8.0,15.0,45,0.00,,,0.09,,2013-08-14 15:02:00,
2013-08-14 11:11:00,69.0,47.0,29.84,NW,325,8.0,15.0,45,0.00,,,0.09,,2013-08-14 15:11:00,
2013-08-14 11:22:00,69.0,47.0,29.84,NW,325,8.0,15.0,45,0.00,,,0.09,,2013-08-14 15:22:00,
2013-08-14 11:57:00,72.0,48.0,29.84,WNW,287,10.0,14.0,42,0.00,,,0.08,,2013-08-14 15:57:00,
2013-08-14 12:13:00,73.0,49.0,29.84,NNW,330,9.0,10.0,42,0.00,,,0.08,,2013-08-14 16:13:00,
2013-08-14 12:28:00,73.0,49.0,29.84,NNW,330,9.0,10.0,42,0.00,,,0.08,,2013-08-14 16:28:00,
2013-08-14 13:05:00,73.0,48.0,29.85,NNW,333,6.0,17.0,41,0.00,,,0.02,,2013-08-14 17:05:00,
2013-08-14 13:29:00,74.0,49.0,29.85,North,356,6.0,17.0,41,0.00,,,0.02,,2013-08-14 17:29:00,
2013-08-14 13:55:00,75.0,50.0,29.85,North,354,5.0,16.0,41,0.00,,,0.02,,2013-08-14 17:55:00,
2013-08-14 14:35:00,74.0,49.0,29.85,WNW,295,8.0,17.0,42,0.00,,,0.02,,2013-08-14 18:35:00,
2013-08-14 15:03:00,-999.0,-99.9,29.86,NNW,333,10.0,14.0,-999,-99.99,,,-99.99,,2013-08-14 19:03:00,
2013-08-14 15:35:00,75.0,51.0,29.86,NNW,333,6.0,17.0,43,0.00,,,0.02,,2013-08-14 19:35:00,
2013-08-14 15:54:00,76.0,51.0,29.85,WNW,300,3.0,14.0,41,0.00,,,0.02,,2013-08-14 19:54:00,
2013-08-14 16:52:00,75.0,50.0,29.85,NNW,341,16.0,23.0,42,0.00,,,0.02,,2013-08-14 20:52:00,
2013-08-14 17:13:00,74.0,50.0,29.86,NNW,346,3.0,16.0,43,0.00,,,0.02,,2013-08-14 21:13:00,
2013-08-14 17:24:00,74.0,50.0,29.86,NNW,346,3.0,16.0,43,0.00,,,0.02,,2013-08-14 21:24:00,
2013-08-14 17:55:00,74.0,50.0,29.87,NNW,345,3.0,11.0,43,0.00,,,0.00,,2013-08-14 21:55:00,
2013-08-14 18:13:00,74.0,51.0,29.88,West,281,4.0,10.0,44,0.00,,,0.00,,2013-08-14 22:13:00,
2013-08-14 18:23:00,74.0,51.0,29.88,West,281,4.0,10.0,44,0.00,,,0.00,,2013-08-14 22:23:00,
2013-08-14 18:55:00,74.0,50.0,29.88,NW,309,5.0,18.0,43,0.00,,,0.00,,2013-08-14 22:55:00,
2013-08-14 19:25:00,72.0,49.0,29.90,NNW,330,5.0,17.0,44,0.00,,,0.00,,2013-08-14 23:25:00,
2013-08-14 19:37:00,72.0,49.0,29.90,NNW,330,5.0,17.0,44,0.00,,,0.00,,2013-08-14 23:37:00,
2013-08-14 19:46:00,72.0,49.0,29.90,NNW,330,5.0,17.0,44,0.00,,,0.00,,2013-08-14 23:46:00,
2013-08-14 19:56:00,72.0,49.0,29.90,NNW,330,5.0,17.0,44,0.00,,,0.00,,2013-08-14 23:56:00,
2013-08-14 20:12:00,70.0,49.0,29.92,WNW,287,3.0,9.0,48,0.00,,,0.00,,2013-08-15 00:12:00,
2013-08-14 20:23:00,70.0,50.0,29.93,NNW,339,3.0,10.0,49,0.00,,,0.00,,2013-08-15 00:23:00,
2013-08-14 20:52:00,69.0,50.0,29.94,NW,319,8.0,8.0,50,0.00,,,0.00,,2013-08-15 00:52:00,
2013-08-14 21:16:00,68.0,49.0,29.95,WNW,300,3.0,5.0,51,0.00,,,0.00,,2013-08-15 01:16:00,
2013-08-14 21:22:00,68.0,50.0,29.96,NW,320,3.0,8.0,52,0.00,,,0.00,,2013-08-15 01:22:00,
2013-08-14 21:52:00,68.0,50.0,29.97,NW,314,4.0,11.0,52,0.00,,,0.00,,2013-08-15 01:52:00,
2013-08-14 22:21:00,67.0,50.0,29.99,NNW,330,2.0,8.0,54,0.00,,,0.00,,2013-08-15 02:21:00,
2013-08-14 23:11:00,66.0,49.0,30.00,NW,326,3.0,10.0,54,0.00,,,0.00,,2013-08-15 03:11:00,
2013-08-14 23:22:00,66.0,49.0,30.00,NW,326,3.0,10.0,54,0.00,,,0.00,,2013-08-15 03:22:00,
2013-08-14 23:33:00,66.0,49.0,30.00,NW,326,3.0,10.0,54,0.00,,,0.00,,2013-08-15 03:33:00,